Alamo, Nevada Weather observations

Data are for observation ending at time listed.
 Day   Time    Ave.   Ave.  Ave.  Vector   Max.   Stn.    Total    Solar   Ave.  
  of    of     Air    Rel.  Wind   Wind    Wind   Baro.  Precip.   Rad.    Soil  
Year   Day     Temp.  Hum.  Speed  Dir.    Gust   Pres.                    Temp. 
2015   (PST)    F      %     mph   deg.    mph     mb.     in.     W/m2     F   
------------------------------------------------------------------------------
 213   11:20   88.1    33    0.8   171      6.0   897.9    0.00     176    86.5
 213   11:30   86.1    34    2.5   173      8.0   898.1    0.00     162    86.5
 213   11:40   84.7    34    2.2   154      9.5   898.1    0.00     148    86.3
 213   11:50   84.1    36    2.2   152      8.2   898.1    0.00     140    86.1
 213   12:00   83.6    38    1.9   168      6.6   898.1    0.00     126    85.7
 213   12:10   83.2    40    1.8   173      7.4   898.2    0.00     115    85.5
 213   12:20   82.8    40    1.8   165      6.9   898.2    0.00     112    85.3
 213   12:30   82.7    40    1.5   167      5.0   898.3    0.00     112    85.0
 213   12:40   82.3    42    1.4   179      6.4   898.5    0.00     114    84.8
 213   12:50   81.9    43    1.3   181      6.1   898.5    0.00     114    84.7
 213   13:00   81.6    44    1.3   195      4.5   898.6    0.00     106    84.5
 213   13:10   81.5    44    2.2   194      5.8   898.5    0.00     110    84.4
 213   13:20   81.8    42    1.5   171      5.8   898.5    0.00     120    84.3
 213   13:30   82.7    40    1.5   186      5.7   898.4    0.00     138    84.1
 213   13:40   82.6    41    1.8   183      6.2   898.2    0.00     141    84.1
 213   13:50   82.5    41    0.8   174      3.7   898.3    0.00     130    84.0
 213   14:00   82.8    39    0.5   149      2.0   898.5    0.00     107    84.0
 213   14:10   82.7    40    0.8   173      4.1   898.5    0.00      79    84.0
 213   14:20   82.5    39    1.2   154      5.6   898.5    0.00      84    83.9
 213   14:30   83.1    38    0.9   162      5.7   898.6    0.00     119    83.8
 213   14:40   83.2    38    2.1   213     10.4   898.7    0.00     132    83.7
 213   14:50   83.3    37    2.4   239      8.8   898.6    0.00     133    83.7
 213   15:00   83.6    38    5.0   338     16.6   898.9    0.00     173    83.8
 213   15:10   82.5    40    4.9   338     12.2   899.1    0.00     206    83.8
 213   15:20   83.2    38    4.3   312      9.3   899.1    0.00     214    83.8
 213   15:30   83.3    37    4.7   293     11.8   898.8    0.00     181    83.9
 213   15:40   83.3    34    3.8   293      8.4   898.9    0.00     156    84.0
 213   15:50   83.6    33    3.5   342      7.7   898.8    0.00     113    84.1
 213   16:00   81.2    42    5.1    19     11.6   898.9    0.00      85    84.1
 213   16:10   80.3    42    4.4    38      8.5   898.9    0.00      81    83.9
 213   16:20   80.1    41    4.3    27      8.0   898.8    0.00      94    83.8
 213   16:30   80.1    41    3.8    17      6.6   898.7    0.00     109    83.6
 213   16:40   80.3    41    2.4     6      5.6   898.7    0.00      94    83.4
 213   16:50   80.3    40    2.2    13      5.1   898.6    0.00      79    83.3
 213   17:00   80.0    41    1.5    33      2.9   898.5    0.00      68    83.2
 213   17:10   80.2    40    1.0     5      2.3   898.4    0.00      54    83.1
 213   17:20   80.1    41    1.1   217      2.5   898.4    0.00      44    83.0
 213   17:30   79.5    42    1.3   201      3.2   898.4    0.00      38    82.8
 213   17:40   78.4    48    0.0   175      0.9   898.4    0.00      28    82.7
 213   17:50   77.6    47    0.7   189      2.0   898.3    0.00      20    82.5
 213   18:00   77.9    45    0.5   255      2.3   898.2    0.00      14    82.3
 213   18:10   79.1    40    1.4   285      3.1   898.1    0.00      13    82.2
 213   18:20   80.0    38    0.7   329      2.0   898.1    0.00      13    82.0
 213   18:30   79.1    42    1.6    68      2.8   898.1    0.00      13    81.8
 213   18:40   78.3    44    0.4    65      2.0   898.0    0.00       5    81.6
 213   18:50   78.0    44    1.9    10      3.6   897.9    0.00       0    81.5
 213   19:00   78.8    41    2.6    10      4.0   897.8    0.00       0    81.3
 213   19:10   78.3    42    1.4   356      5.3   897.9    0.00       0    81.1
 213   19:20   77.6    45    1.2   207      2.3   898.0    0.00       0    81.0
 213   19:30   76.6    48    0.3   230      1.2   898.2    0.00       0    80.8
 213   19:40   75.9    49    1.3   203      3.7   898.3    0.00       0    80.7
 213   19:50   76.3    46    1.6   226      5.0   898.3    0.00       0    80.5
 213   20:00   78.2    41    3.3   235      6.6   898.3    0.00       0    80.3
 213   20:10   78.4    40    1.6   228      5.1   898.3    0.00       0    80.2
 213   20:20   78.5    40    0.8   287      3.1   898.1    0.00       0    80.0
 213   20:30   77.7    42    2.7    31      5.3   898.1    0.00       0    79.9
 213   20:40   77.6    42    2.6    35      5.3   898.3    0.00       0    79.8
 213   20:50   77.7    41    2.5     5      4.9   898.5    0.00       0    79.7
 213   21:00   77.9    41    3.9   346      7.2   898.2    0.00       0    79.6
 213   21:10   76.8    44    4.7   355      9.0   897.8    0.00       0    79.5
 213   21:20   76.3    45    3.1   339      8.6   897.6    0.00       0    79.4
 213   21:30   76.5    45    2.0    63      3.7   897.7    0.00       0    79.4
 213   21:40   75.8    47    2.3    70      4.7   897.7    0.00       0    79.3
 213   21:50   76.4    44    2.8    45      5.9   897.8    0.00       0    79.2
 213   22:00   76.5    44    2.8    15      4.9   897.7    0.00       0    79.1
 213   22:10   76.2    45    2.6    59      5.3   897.8    0.00       0    79.0
 213   22:20   76.9    43    3.2    50      5.6   897.8    0.00       0    78.9
 213   22:30   77.3    42    3.7    20      6.4   897.8    0.00       0    78.8
 213   22:40   77.2    42    3.5    14      5.9   897.8    0.00       0    78.8
 213   22:50   77.2    42    2.8   345      5.2   897.7    0.00       0    78.7
 213   23:00   77.0    42    2.1   352      4.2   897.6    0.00       0    78.7
 213   23:10   76.1    44    1.9    43      3.1   897.5    0.00       0    78.6
 213   23:20   75.9    44    2.1    51      3.7   897.4    0.00       0    78.5
 213   23:30   76.6    41    1.5    57      2.8   897.4    0.00       0    78.5
 213   23:40   76.6    42    0.7   241      2.0   897.3    0.00       0    78.4
 213   23:50   75.8    44    0.6   290      2.0   897.3    0.00       0    78.3
 214    0:00   75.2    45    1.3    21      2.9   897.1    0.00       0    78.3
 214    0:10   74.9    45    2.0    12      3.4   896.8    0.00       0    78.2
 214    0:20   74.5    47    1.5    34      3.0   896.6    0.00       0    78.1
 214    0:30   75.1    43    2.0   332      6.9   896.3    0.00       0    78.0
 214    0:40   77.1    36    2.2    70      5.8   896.3    0.00       0    78.0
 214    0:50   77.6    35    2.4    35      4.9   896.5    0.00       0    77.9
 214    1:00   77.2    37    1.3    23      2.9   896.5    0.00       0    77.8
 214    1:10   75.8    42    0.3    83      1.8   896.7    0.00       0    77.7
 214    1:20   74.7    44    0.4   210      2.9   896.7    0.00       0    77.7
 214    1:30   74.2    45    0.9   195      3.2   896.7    0.00       0    77.7
 214    1:40   73.6    47    0.3   193      1.4   896.7    0.00       0    77.6
 214    1:50   73.2    47    0.8   182      1.7   896.8    0.00       0    77.5
 214    2:00   73.2    49    0.5     1      1.8   896.8    0.00       0    77.4
 214    2:10   73.2    48    0.1    82      0.9   896.9    0.00       0    77.4
 214    2:20   73.0    51    0.7   103      3.1   897.2    0.00       0    77.3
 214    2:30   73.9    52    0.8   191      2.9   897.4    0.00       0    77.2
 214    2:40   74.3    52    0.2    86      1.3   897.4    0.00       0    77.1
 214    2:50   74.3    51    0.3    72      2.1   897.4    0.00       0    77.0
 214    3:00   74.4    52    1.0    49      2.6   897.2    0.00       0    76.9
 214    3:10   73.7    56    2.6   334      4.4   896.6    0.00       0    76.8
 214    3:20   73.0    60    0.8   356      3.1   896.5    0.00       0    76.7
 214    3:30   71.6    64    2.8    23      5.8   896.6    0.00       0    76.6
 214    3:40   71.3    64    2.9     2      5.7   896.5    0.00       0    76.5
 214    3:50   71.2    64    2.8    18      4.8   896.6    0.00       0    76.3
 214    4:00   71.2    65    3.1   357      6.7   896.7    0.00       0    76.2
 214    4:10   71.4    62    3.2   351      6.8   896.7    0.00       0    76.0
 214    4:20   72.6    55    3.5   347      9.1   896.5    0.00       0    75.9
 214    4:30   72.8    55    3.5   352      7.2   896.4    0.00       0    75.7
 214    4:40   72.9    53    3.3   335      5.7   896.4    0.00       0    75.6
 214    4:50   73.3    51    3.3     4      7.2   896.4    0.00       0    75.5
 214    5:00   73.6    50    1.7     5      4.1   896.5    0.00       0    75.5
 214    5:10   73.7    49    2.3   349      3.9   896.4    0.00       0    75.4
 214    5:20   73.2    51    2.3   355      4.2   896.4    0.00       1    75.4
 214    5:30   73.0    52    1.0   335      2.4   896.5    0.00       7    75.4
 214    5:40   72.6    54    0.6   204      1.4   896.7    0.00      12    75.4
 214    5:50   71.5    58    1.5   196      4.1   896.8    0.00      18    75.4
 214    6:00   71.1    59    0.7   113      1.8   896.9    0.00      25    75.4
 214    6:10   71.2    58    0.3    94      1.8   897.1    0.00      32    75.3
 214    6:20   72.0    55    0.1   182      1.2   897.1    0.00      47    75.3
 214    6:30   72.6    54    0.3   222      1.2   897.0    0.00      67    75.4
 214    6:40   72.8    56    0.3   132      1.4   897.0    0.00      80    75.4
 214    6:50   73.2    54    0.2    80      2.2   897.1    0.00      88    75.6
 214    7:00   73.9    53    0.4   188      2.3   897.3    0.00     113    75.7
 214    7:10   74.8    50    0.1   171      1.2   897.3    0.00     138    75.8
 214    7:20   75.8    48    0.5   185      2.5   897.4    0.00     160    76.0
 214    7:30   76.4    47    0.9   184      3.4   897.6    0.00     157    76.2
 214    7:40   76.7    46    0.9   202      5.0   897.7    0.00     169    76.5
 214    7:50   77.1    45    0.7   166      2.7   897.7    0.00     171    76.7
 214    8:00   77.7    44    0.5   187      4.0   897.7    0.00     175    77.0
 214    8:10   78.3    44    0.1   160      1.4   897.6    0.00     168    77.2
 214    8:20   78.7    42    0.3   199      2.0   897.6    0.00     167    77.4
 214    8:30   79.2    41    0.3   200      2.3   897.7    0.00     205    77.7
 214    8:40   79.8    41    0.5   179      3.1   897.7    0.00     243    77.9
 214    8:50   80.3    39    0.3   162      1.8   897.7    0.00     252    78.2
 214    9:00   80.6    37    0.6   105      3.6   897.7    0.00     266    78.5
 214    9:10   81.2    37    0.2   168      3.1   897.7    0.00     293    78.8
 214    9:20   82.2    38    0.2   215      1.0   897.6    0.00     303    79.1
 214    9:30   82.1    38    0.8   195      2.3   897.6    0.00     305    79.5
 214    9:40   82.2    37    0.7   196      2.1   897.5    0.00     324    79.8
 214    9:50   82.3    37    1.2   200      3.5   897.5    0.00     332    80.2
 214   10:00   82.0    36    1.4   197      3.8   897.4    0.00     349    80.5
 214   10:10   82.2    36    1.6   203      3.3   897.3    0.00     356    80.9
 214   10:20   82.3    36    1.8   201      3.4   897.3    0.00     378    81.2
 214   10:30   83.6    32    1.8   207      4.6   897.4    0.00     461    81.6
 214   10:40   85.0    30    1.6   164      4.1   897.3    0.00     615    82.0
 214   10:50   86.6    28    0.9   152      5.5   897.2    0.00    1016    82.5
 214   11:00   87.6    27    1.7   129      9.3   897.1    0.00    1121    83.4
 214   11:10   88.5    26    2.3   194      5.6   897.0    0.00    1134    84.5

Return to Alamo, Nevada graphs page.


Western Regional Climate Center,wrcc@dri.edu